Time;durP1;ratioP1;P1;durP2;ratioP2;P2;SDS_P1;SDS_P2;PMS_P1;PMS_P2;Temp;Humidity;BMP_temperature;BMP_pressure;BME280_temperature;BME280_humidity;BME280_pressure;Samples;Min_cycle;Max_cycle;Signal;HPM_P1;HPM_P2
2021/10/30 00:02:42;;;;;;;61.83;39.65;;;;;;;-140.66;100.00;55571.53;4958371;28;20041;-73
2021/10/30 00:05:27;;;;;;;63.20;38.53;;;;;;;-140.66;100.00;55571.53;4958224;28;20023;-73
2021/10/30 00:08:14;;;;;;;58.50;38.25;;;;;;;-140.66;100.00;55571.53;4957866;28;20035;-73
2021/10/30 00:11:00;;;;;;;62.15;40.80;;;;;;;-140.66;100.00;55571.53;4957898;28;20062;-74
2021/10/30 00:13:46;;;;;;;67.75;41.20;;;;;;;-140.66;100.00;55571.53;4957825;28;20059;-73
2021/10/30 00:16:31;;;;;;;68.43;40.15;;;;;;;-140.66;100.00;55571.53;4957748;28;20046;-74
2021/10/30 00:19:17;;;;;;;67.78;40.58;;;;;;;-140.66;100.00;55571.53;4957450;28;20054;-74
2021/10/30 00:22:04;;;;;;;62.60;40.90;;;;;;;-140.66;100.00;55571.53;4957067;29;20049;-74
2021/10/30 00:24:50;;;;;;;61.17;40.22;;;;;;;-140.66;100.00;55571.53;4942851;29;20028;-74
2021/10/30 00:27:35;;;;;;;66.50;41.50;;;;;;;-140.66;100.00;55571.53;4942840;29;20464;-73
2021/10/30 00:30:21;;;;;;;60.40;39.95;;;;;;;-140.66;100.00;55571.53;4957528;28;20038;-73
2021/10/30 00:33:07;;;;;;;61.55;39.35;;;;;;;-140.66;100.00;55571.53;4957637;28;20027;-74
2021/10/30 00:35:53;;;;;;;59.10;39.72;;;;;;;-140.66;100.00;55571.53;4957724;28;20035;-73
2021/10/30 00:38:39;;;;;;;65.03;40.35;;;;;;;-140.66;100.00;55571.53;4957603;28;20032;-73
2021/10/30 00:41:24;;;;;;;58.10;38.70;;;;;;;-140.66;100.00;55571.53;4957598;28;20361;-72
2021/10/30 00:44:11;;;;;;;61.95;39.20;;;;;;;-140.66;100.00;55571.53;4957588;28;20086;-73
2021/10/30 00:46:57;;;;;;;59.60;38.10;;;;;;;-140.66;100.00;55571.53;4955589;29;20031;-73
2021/10/30 00:49:44;;;;;;;61.20;38.72;;;;;;;-140.66;100.00;55571.53;4957498;28;20027;-73
2021/10/30 00:52:31;;;;;;;55.42;37.30;;;;;;;-140.66;100.00;55571.53;4957205;28;20031;-73
2021/10/30 00:55:21;;;;;;;57.40;37.17;;;;;;;-140.66;100.00;55571.53;4957670;28;20027;-73
2021/10/30 00:58:10;;;;;;;56.90;37.67;;;;;;;-140.66;100.00;55571.53;4941946;29;20038;-73
2021/10/30 01:00:57;;;;;;;60.67;37.90;;;;;;;-140.66;100.00;55571.53;4957111;28;20441;-73
2021/10/30 01:03:44;;;;;;;59.88;36.33;;;;;;;-140.66;100.00;55571.53;4957723;28;20035;-74
2021/10/30 01:06:31;;;;;;;54.60;36.22;;;;;;;-140.66;100.00;55571.53;4959624;28;20435;-73
2021/10/30 01:09:19;;;;;;;54.60;35.83;;;;;;;-140.66;100.00;55571.53;4961013;28;20051;-73
2021/10/30 01:12:07;;;;;;;57.42;36.65;;;;;;;-140.66;100.00;55571.53;4961358;28;20031;-73
2021/10/30 01:14:54;;;;;;;58.55;35.95;;;;;;;-140.66;100.00;55571.53;4960003;29;20037;-74
2021/10/30 01:17:39;;;;;;;55.28;36.30;;;;;;;-140.66;100.00;55571.53;4961032;28;20094;-73
2021/10/30 01:20:26;;;;;;;56.70;36.67;;;;;;;-140.66;100.00;55571.53;4960922;28;20134;-73
2021/10/30 01:23:12;;;;;;;54.42;36.78;;;;;;;-140.66;100.00;55571.53;4961243;28;20476;-73
2021/10/30 01:26:00;;;;;;;55.85;36.88;;;;;;;-140.66;100.00;55571.53;4960691;28;20070;-73
2021/10/30 01:28:46;;;;;;;54.65;34.17;;;;;;;-140.66;100.00;55571.53;4945850;29;20019;-73
2021/10/30 01:31:32;;;;;;;49.63;35.08;;;;;;;-140.66;100.00;55571.53;4961091;28;20098;-73
2021/10/30 01:34:18;;;;;;;57.40;34.67;;;;;;;-140.66;100.00;55571.53;4960744;28;20027;-73
2021/10/30 01:37:04;;;;;;;59.00;36.05;;;;;;;-140.66;100.00;55571.53;4960199;28;20038;-73
2021/10/30 01:39:50;;;;;;;55.70;35.05;;;;;;;-140.66;100.00;55571.53;4960568;28;20426;-73
2021/10/30 01:42:36;;;;;;;57.58;35.15;;;;;;;-140.66;100.00;55571.53;4960770;28;20346;-74
2021/10/30 01:45:22;;;;;;;56.30;34.58;;;;;;;-140.66;100.00;55571.53;4959178;29;20458;-73
2021/10/30 01:48:08;;;;;;;53.20;34.28;;;;;;;-140.66;100.00;55571.53;4960570;28;20023;-74
2021/10/30 01:50:54;;;;;;;51.00;33.88;;;;;;;-140.66;100.00;55571.53;4960468;28;20019;-73
2021/10/30 01:53:40;;;;;;;50.22;31.70;;;;;;;-140.66;100.00;55571.53;4960508;28;20077;-73
2021/10/30 01:56:27;;;;;;;51.47;33.78;;;;;;;-140.66;100.00;55571.53;4960401;28;20434;-74
2021/10/30 01:59:12;;;;;;;56.80;35.75;;;;;;;-140.66;100.00;55571.53;4960584;28;20207;-74
2021/10/30 02:01:58;;;;;;;52.15;34.33;;;;;;;-140.66;100.00;55571.53;4960161;28;20042;-73
2021/10/30 02:04:44;;;;;;;52.75;34.33;;;;;;;-140.66;100.00;55571.53;4945090;29;20027;-73
2021/10/30 02:07:30;;;;;;;54.85;36.83;;;;;;;-140.66;100.00;55571.53;4959989;28;20342;-74
2021/10/30 02:10:16;;;;;;;62.30;38.78;;;;;;;-140.66;100.00;55571.53;4960073;28;20357;-74
2021/10/30 02:13:02;;;;;;;55.72;35.83;;;;;;;-140.66;100.00;55571.53;4960314;28;20057;-74
2021/10/30 02:15:49;;;;;;;52.00;35.67;;;;;;;-140.66;100.00;55571.53;4944559;29;20031;-73
2021/10/30 02:18:35;;;;;;;57.88;35.80;;;;;;;-140.66;100.00;55571.53;4958585;28;20053;-73
2021/10/30 02:21:21;;;;;;;60.92;37.05;;;;;;;-140.66;100.00;55571.53;4944962;29;20040;-73
2021/10/30 02:24:07;;;;;;;56.83;37.30;;;;;;;-140.66;100.00;55571.53;4958241;29;20031;-74
2021/10/30 02:26:52;;;;;;;58.33;37.35;;;;;;;-140.66;100.00;55571.53;4958270;29;20031;-73
2021/10/30 02:29:39;;;;;;;51.47;35.72;;;;;;;-140.66;100.00;55571.53;4958691;29;20023;-73
2021/10/30 02:32:24;;;;;;;60.88;38.42;;;;;;;-140.66;100.00;55571.53;4959995;28;20046;-74
2021/10/30 02:35:11;;;;;;;54.70;34.67;;;;;;;-140.66;100.00;55571.53;4959801;28;20031;-73
2021/10/30 02:37:57;;;;;;;51.75;34.78;;;;;;;-140.66;100.00;55571.53;4959932;28;20323;-73
2021/10/30 02:40:43;;;;;;;58.17;35.85;;;;;;;-140.66;100.00;55571.53;4959231;28;20444;-73
2021/10/30 02:43:29;;;;;;;52.83;35.50;;;;;;;-140.66;100.00;55571.53;4944488;29;20023;-72
2021/10/30 02:46:14;;;;;;;51.85;34.30;;;;;;;-140.66;100.00;55571.53;4958819;28;20031;-74
2021/10/30 02:49:00;;;;;;;56.17;35.83;;;;;;;-140.66;100.00;55571.53;4959761;28;20035;-72
2021/10/30 02:51:46;;;;;;;63.22;37.88;;;;;;;-140.66;100.00;55571.53;4959296;28;20027;-74
2021/10/30 02:54:31;;;;;;;80.32;45.30;;;;;;;-140.66;100.00;55571.53;4944340;29;20035;-73
2021/10/30 02:57:17;;;;;;;67.82;41.60;;;;;;;-140.66;100.00;55571.53;4957706;29;20110;-73
2021/10/30 03:00:05;;;;;;;78.20;45.05;;;;;;;-140.66;100.00;55571.53;4959652;28;20035;-72
2021/10/30 03:02:51;;;;;;;71.20;43.03;;;;;;;-140.66;100.00;55571.53;4944170;29;20023;-73
2021/10/30 03:05:37;;;;;;;62.95;38.83;;;;;;;-140.66;100.00;55571.53;4959033;28;20120;-74
2021/10/30 03:08:23;;;;;;;61.33;38.53;;;;;;;-140.66;100.00;55571.53;4958791;28;20027;-73
2021/10/30 03:11:09;;;;;;;57.28;37.05;;;;;;;-140.66;100.00;55571.53;4958953;28;20373;-74
2021/10/30 03:13:55;;;;;;;61.63;38.55;;;;;;;-140.66;100.00;55571.53;4958933;28;20033;-73
2021/10/30 03:16:40;;;;;;;60.05;36.15;;;;;;;-140.66;100.00;55571.53;4958941;28;20114;-73
2021/10/30 03:19:26;;;;;;;62.40;35.58;;;;;;;-140.66;100.00;55571.53;4958580;28;20488;-73
2021/10/30 03:22:12;;;;;;;59.15;37.05;;;;;;;-140.66;100.00;55571.53;4958956;28;20090;-73
2021/10/30 03:24:58;;;;;;;55.53;35.25;;;;;;;-140.66;100.00;55571.53;4958591;28;20047;-73
2021/10/30 03:27:44;;;;;;;56.80;35.35;;;;;;;-140.66;100.00;55571.53;4958592;28;20020;-73
2021/10/30 03:30:30;;;;;;;56.15;35.35;;;;;;;-140.66;100.00;55571.53;4958194;28;20169;-73
2021/10/30 03:33:16;;;;;;;55.28;35.90;;;;;;;-140.66;100.00;55571.53;4957756;29;20023;-74
2021/10/30 03:36:02;;;;;;;51.13;33.75;;;;;;;-140.66;100.00;55571.53;4958367;28;20110;-73
2021/10/30 03:38:47;;;;;;;61.28;37.83;;;;;;;-140.66;100.00;55571.53;4957505;29;20062;-73
2021/10/30 03:41:33;;;;;;;58.85;37.92;;;;;;;-140.66;100.00;55571.53;4958283;28;20031;-73
2021/10/30 03:44:19;;;;;;;57.80;36.17;;;;;;;-140.66;100.00;55571.53;4958571;28;20023;-74
2021/10/30 03:47:05;;;;;;;52.17;34.85;;;;;;;-140.66;100.00;55571.53;4958413;28;20031;-73
2021/10/30 03:49:51;;;;;;;57.42;35.83;;;;;;;-140.66;100.00;55571.53;4958245;28;20438;-72
2021/10/30 03:52:37;;;;;;;60.20;37.47;;;;;;;-140.66;100.00;55571.53;4956931;29;20062;-73
2021/10/30 03:55:23;;;;;;;62.35;36.33;;;;;;;-140.66;100.00;55571.53;4958133;28;20035;-73
2021/10/30 03:58:08;;;;;;;57.60;36.83;;;;;;;-140.66;100.00;55571.53;4956745;29;20031;-73
2021/10/30 04:00:54;;;;;;;60.20;34.65;;;;;;;-140.66;100.00;55571.53;4957904;28;20130;-74
2021/10/30 04:03:40;;;;;;;54.25;35.13;;;;;;;-140.66;100.00;55571.53;4957118;29;20046;-73
2021/10/30 04:06:26;;;;;;;57.10;35.35;;;;;;;-140.66;100.00;55571.53;4957909;28;20361;-74
2021/10/30 04:09:12;;;;;;;59.10;37.45;;;;;;;-140.66;100.00;55571.53;4942594;29;20462;-74
2021/10/30 04:11:57;;;;;;;61.75;39.28;;;;;;;-140.66;100.00;55571.53;4958216;28;20039;-73
2021/10/30 04:14:43;;;;;;;64.68;39.15;;;;;;;-140.66;100.00;55571.53;4956622;29;20111;-73
2021/10/30 04:17:29;;;;;;;76.20;39.78;;;;;;;-140.66;100.00;55571.53;4942555;29;20094;-74
2021/10/30 04:20:15;;;;;;;62.22;37.90;;;;;;;-140.66;100.00;55571.53;4957275;28;20206;-73
2021/10/30 04:23:00;;;;;;;58.13;35.20;;;;;;;-140.66;100.00;55571.53;4957733;28;20063;-73
2021/10/30 04:25:46;;;;;;;51.38;30.83;;;;;;;-140.66;100.00;55571.53;4957552;28;20031;-73
2021/10/30 04:28:33;;;;;;;98.10;31.63;;;;;;;-140.66;100.00;55571.53;4958087;28;20405;-72
2021/10/30 04:31:24;;;;;;;49.75;29.42;;;;;;;-140.66;100.00;55571.53;4957506;28;20054;-72
2021/10/30 04:34:18;;;;;;;63.67;29.35;;;;;;;-140.66;100.00;55571.53;4957258;28;20039;-73
2021/10/30 04:37:13;;;;;;;66.90;28.27;;;;;;;-140.66;100.00;55571.53;4957345;28;20042;-72
2021/10/30 04:39:59;;;;;;;49.80;27.92;;;;;;;-140.66;100.00;55571.53;4957189;28;20760;-73
2021/10/30 04:42:44;;;;;;;65.85;24.52;;;;;;;-140.66;100.00;55571.53;4957363;28;20338;-73
2021/10/30 04:45:31;;;;;;;38.22;21.05;;;;;;;-140.66;100.00;55571.53;4942291;29;20023;-72
2021/10/30 04:48:17;;;;;;;73.60;22.33;;;;;;;-140.66;100.00;55571.53;4956177;29;20031;-73
2021/10/30 04:51:05;;;;;;;62.35;22.92;;;;;;;-140.66;100.00;55571.53;4956576;29;20473;-73
2021/10/30 04:53:51;;;;;;;55.53;23.55;;;;;;;-140.66;100.00;55571.53;4957433;28;20027;-73
2021/10/30 04:56:36;;;;;;;37.47;22.50;;;;;;;-140.66;100.00;55571.53;4942554;29;20031;-73
2021/10/30 04:59:22;;;;;;;91.38;25.38;;;;;;;-140.66;100.00;55571.53;4956821;28;20474;-73
2021/10/30 05:02:08;;;;;;;50.13;25.40;;;;;;;-140.66;100.00;55571.53;4957457;28;20031;-73
2021/10/30 05:04:54;;;;;;;37.53;22.77;;;;;;;-140.66;100.00;55571.53;4955567;29;20432;-73
2021/10/30 05:07:39;;;;;;;39.35;23.63;;;;;;;-140.66;100.00;55571.53;4955527;29;20023;-73
2021/10/30 05:10:25;;;;;;;50.67;25.88;;;;;;;-140.66;100.00;55571.53;4957749;28;20130;-72
2021/10/30 05:13:11;;;;;;;65.78;28.02;;;;;;;-140.66;100.00;55571.53;4942345;29;20038;-73
2021/10/30 05:15:57;;;;;;;52.55;28.27;;;;;;;-140.66;100.00;55571.53;4957427;28;20027;-74
2021/10/30 05:18:43;;;;;;;55.78;30.02;;;;;;;-140.66;100.00;55571.53;4957178;28;20062;-73
2021/10/30 05:21:29;;;;;;;55.75;30.90;;;;;;;-140.66;100.00;55571.53;4956974;28;20110;-73
2021/10/30 05:24:15;;;;;;;59.42;32.15;;;;;;;-140.66;100.00;55571.53;4957073;28;20024;-73
2021/10/30 05:27:01;;;;;;;53.70;31.15;;;;;;;-140.66;100.00;55571.53;4956969;28;20051;-74
2021/10/30 05:29:47;;;;;;;47.88;27.50;;;;;;;-140.66;100.00;55571.53;4957029;28;20410;-73
2021/10/30 05:32:32;;;;;;;44.67;27.20;;;;;;;-140.66;100.00;55571.53;4956503;28;20050;-73
2021/10/30 05:35:18;;;;;;;40.92;21.67;;;;;;;-140.66;100.00;55571.53;4957021;28;20031;-73
2021/10/30 05:38:04;;;;;;;36.75;21.63;;;;;;;-140.66;100.00;55571.53;4941172;29;20046;-73
2021/10/30 05:40:50;;;;;;;27.70;19.58;;;;;;;-140.66;100.00;55571.53;4957450;28;20369;-72
2021/10/30 05:43:37;;;;;;;30.25;18.55;;;;;;;-140.66;100.00;55571.53;4942478;29;20054;-73
2021/10/30 05:46:23;;;;;;;40.55;21.38;;;;;;;-140.66;100.00;55571.53;4956975;28;20372;-74
2021/10/30 05:49:10;;;;;;;29.48;19.02;;;;;;;-140.66;100.00;55571.53;4956874;28;20111;-74
2021/10/30 05:51:56;;;;;;;25.60;18.35;;;;;;;-140.66;100.00;55571.53;4955741;28;20061;-74
2021/10/30 05:54:42;;;;;;;25.65;17.98;;;;;;;-140.66;100.00;55571.53;4960327;28;20031;-73
2021/10/30 05:57:27;;;;;;;23.25;16.20;;;;;;;-140.66;100.00;55571.53;4959944;28;20028;-74
2021/10/30 06:00:13;;;;;;;21.75;15.05;;;;;;;-140.66;100.00;55571.53;4959351;29;20027;-73
2021/10/30 06:02:59;;;;;;;26.02;17.02;;;;;;;-140.66;100.00;55571.53;4960443;28;20058;-73
2021/10/30 06:05:45;;;;;;;26.02;16.27;;;;;;;-140.66;100.00;55571.53;4959211;29;20105;-74
2021/10/30 06:08:31;;;;;;;26.52;16.45;;;;;;;-140.66;100.00;55571.53;4960076;28;20027;-73
2021/10/30 06:11:17;;;;;;;27.73;17.02;;;;;;;-140.66;100.00;55571.53;4944644;29;20027;-73
2021/10/30 06:14:04;;;;;;;26.73;17.20;;;;;;;-140.66;100.00;55571.53;4960384;28;20413;-74
2021/10/30 06:16:50;;;;;;;25.02;16.38;;;;;;;-140.66;100.00;55571.53;4944563;29;20031;-74
2021/10/30 06:19:36;;;;;;;28.77;17.83;;;;;;;-140.66;100.00;55571.53;4959703;28;20052;-73
2021/10/30 06:22:22;;;;;;;34.67;21.15;;;;;;;-140.66;100.00;55571.53;4959857;28;20050;-73
2021/10/30 06:25:12;;;;;;;30.42;18.88;;;;;;;-140.66;100.00;55571.53;4960015;28;20035;-73
2021/10/30 06:27:58;;;;;;;28.60;18.25;;;;;;;-140.66;100.00;55571.53;4958539;29;20034;-73
2021/10/30 06:30:44;;;;;;;30.30;18.90;;;;;;;-140.66;100.00;55571.53;4957902;29;20521;-73
2021/10/30 06:33:30;;;;;;;30.65;20.00;;;;;;;-140.66;100.00;55571.53;4959976;28;20035;-74
2021/10/30 06:36:15;;;;;;;45.10;23.48;;;;;;;-140.66;100.00;55571.53;4959193;28;20024;-73
2021/10/30 06:39:02;;;;;;;38.17;22.23;;;;;;;-140.66;100.00;55571.53;4959444;28;20037;-72
2021/10/30 06:41:48;;;;;;;45.55;23.58;;;;;;;-140.66;100.00;55571.53;4959459;28;20023;-73
2021/10/30 06:44:34;;;;;;;37.13;22.42;;;;;;;-140.66;100.00;55571.53;4959520;28;20055;-73
2021/10/30 06:47:20;;;;;;;41.75;23.45;;;;;;;-140.66;100.00;55571.53;4959310;28;20335;-73
2021/10/30 06:50:08;;;;;;;41.08;23.42;;;;;;;-140.66;100.00;55571.53;4959283;28;20030;-73
2021/10/30 06:52:53;;;;;;;39.72;22.08;;;;;;;-140.66;100.00;55571.53;4958480;29;20031;-73
2021/10/30 06:55:41;;;;;;;36.83;22.33;;;;;;;-140.66;100.00;55571.53;4959059;28;20129;-73
2021/10/30 06:58:28;;;;;;;47.42;24.02;;;;;;;-140.66;100.00;55571.53;4959483;28;20034;-74
2021/10/30 07:01:16;;;;;;;50.72;22.40;;;;;;;-140.66;100.00;55571.53;4959165;28;20042;-74
2021/10/30 07:04:05;;;;;;;38.45;20.63;;;;;;;-140.66;100.00;55571.53;4958451;28;20380;-75
2021/10/30 07:06:51;;;;;;;37.10;20.95;;;;;;;-140.66;100.00;55571.53;4957737;29;20031;-74
2021/10/30 07:09:37;;;;;;;36.00;20.73;;;;;;;-140.66;100.00;55571.53;4959445;28;20035;-73
2021/10/30 07:12:22;;;;;;;40.95;21.88;;;;;;;-140.66;100.00;55571.53;4959434;28;20036;-73
2021/10/30 07:15:11;;;;;;;44.22;22.52;;;;;;;-140.66;100.00;55571.53;4959136;28;20031;-73
2021/10/30 07:17:56;;;;;;;36.60;20.75;;;;;;;-140.66;100.00;55571.53;4958667;28;20031;-73
2021/10/30 07:20:42;;;;;;;41.10;22.45;;;;;;;-140.66;100.00;55571.53;4959199;28;20073;-74
2021/10/30 07:23:28;;;;;;;37.42;20.77;;;;;;;-140.66;100.00;55571.53;4958847;28;20031;-74
2021/10/30 07:26:14;;;;;;;48.00;23.90;;;;;;;-140.66;100.00;55571.53;4943415;29;20031;-73
2021/10/30 07:28:59;;;;;;;41.83;23.73;;;;;;;-140.66;100.00;55571.53;4958826;28;20054;-73
2021/10/30 07:31:45;;;;;;;45.65;22.67;;;;;;;-140.66;100.00;55571.53;4958224;28;20035;-73
2021/10/30 07:34:31;;;;;;;42.90;21.92;;;;;;;-140.66;100.00;55571.53;4943475;29;20430;-73
2021/10/30 07:37:17;;;;;;;40.05;22.13;;;;;;;-140.66;100.00;55571.53;4958469;28;20031;-72
2021/10/30 07:40:04;;;;;;;44.80;21.50;;;;;;;-140.66;100.00;55571.53;4943656;29;20457;-74
2021/10/30 07:42:50;;;;;;;42.28;20.98;;;;;;;-140.66;100.00;55571.53;4957890;29;20373;-73
2021/10/30 07:45:36;;;;;;;47.00;23.90;;;;;;;-140.66;100.00;55571.53;4944041;29;20038;-73
2021/10/30 07:48:22;;;;;;;42.70;22.08;;;;;;;-140.66;100.00;55571.53;4958862;28;20461;-74
2021/10/30 07:51:07;;;;;;;36.85;20.33;;;;;;;-140.66;100.00;55571.53;4943523;29;20122;-74
2021/10/30 07:53:53;;;;;;;36.22;22.23;;;;;;;-140.66;100.00;55571.53;4958602;28;20405;-73
2021/10/30 07:56:39;;;;;;;39.75;22.25;;;;;;;-140.66;100.00;55571.53;4958294;28;20043;-74
2021/10/30 07:59:25;;;;;;;45.25;22.63;;;;;;;-140.66;100.00;55571.53;4943081;29;20457;-73
2021/10/30 08:02:11;;;;;;;43.40;23.42;;;;;;;-140.66;100.00;55571.53;4958105;28;20324;-73
2021/10/30 08:04:57;;;;;;;45.45;23.52;;;;;;;-140.66;100.00;55571.53;4956690;29;20065;-74
2021/10/30 08:07:43;;;;;;;48.85;25.10;;;;;;;-140.66;100.00;55571.53;4961744;28;20031;-72
2021/10/30 08:10:31;;;;;;;59.00;28.15;;;;;;;-140.66;100.00;55571.53;4957184;29;20041;-74
2021/10/30 08:13:16;;;;;;;55.65;26.17;;;;;;;-140.66;100.00;55571.53;4957169;29;20035;-73
2021/10/30 08:16:02;;;;;;;46.17;25.67;;;;;;;-140.66;100.00;55571.53;4955813;28;20101;-73
2021/10/30 08:18:49;;;;;;;51.90;26.75;;;;;;;-140.66;100.00;55571.53;4957990;28;20433;-74
2021/10/30 08:21:35;;;;;;;58.83;26.20;;;;;;;-140.66;100.00;55571.53;4957594;28;20449;-73
2021/10/30 08:24:21;;;;;;;47.60;25.40;;;;;;;-140.66;100.00;55571.53;4957870;28;20086;-72
2021/10/30 08:27:07;;;;;;;52.75;27.02;;;;;;;-140.66;100.00;55571.53;4957309;28;20358;-73
2021/10/30 08:29:53;;;;;;;45.08;24.95;;;;;;;-140.66;100.00;55571.53;4958133;28;20027;-73
2021/10/30 08:32:38;;;;;;;45.05;23.77;;;;;;;-140.66;100.00;55571.53;4956533;29;20110;-74
2021/10/30 08:35:24;;;;;;;46.05;25.02;;;;;;;-140.66;100.00;55571.53;4942761;29;20041;-74
2021/10/30 08:38:10;;;;;;;40.40;24.25;;;;;;;-140.66;100.00;55571.53;4957582;28;20477;-72
2021/10/30 08:41:00;;;;;;;40.85;22.88;;;;;;;-140.66;100.00;55571.53;4957505;28;20039;-73
2021/10/30 08:43:48;;;;;;;45.17;24.30;;;;;;;-140.66;100.00;55571.53;4942220;29;20031;-74
2021/10/30 08:46:35;;;;;;;49.47;25.83;;;;;;;-140.66;100.00;55571.53;4957838;28;20031;-74
2021/10/30 08:49:21;;;;;;;40.22;22.63;;;;;;;-140.66;100.00;55571.53;4957847;28;20023;-73
2021/10/30 08:52:07;;;;;;;43.63;24.48;;;;;;;-140.66;100.00;55571.53;4942404;29;20189;-72
2021/10/30 08:54:53;;;;;;;45.88;24.20;;;;;;;-140.66;100.00;55571.53;4957474;28;20031;-73
2021/10/30 08:57:38;;;;;;;46.20;26.05;;;;;;;-140.66;100.00;55571.53;4957764;28;20102;-73
2021/10/30 09:00:25;;;;;;;45.60;24.90;;;;;;;-140.66;100.00;55571.53;4957507;28;20092;-72
2021/10/30 09:03:14;;;;;;;43.72;24.35;;;;;;;-140.66;100.00;55571.53;4957618;28;20363;-73
2021/10/30 09:06:01;;;;;;;43.88;23.30;;;;;;;-140.66;100.00;55571.53;4957128;28;20059;-72
2021/10/30 09:08:46;;;;;;;48.38;24.20;;;;;;;-140.66;100.00;55571.53;4942359;29;20048;-73
2021/10/30 09:11:32;;;;;;;33.85;21.50;;;;;;;-140.66;100.00;55571.53;4957185;28;20027;-73
2021/10/30 09:14:23;;;;;;;39.05;22.65;;;;;;;-140.66;100.00;55571.53;4955808;29;20042;-74
2021/10/30 09:17:27;;;;;;;41.22;24.27;;;;;;;-140.66;100.00;55571.53;4955533;29;20063;-73
2021/10/30 09:20:15;;;;;;;41.83;23.33;;;;;;;-140.66;100.00;55571.53;4956825;28;20047;-74
2021/10/30 09:23:00;;;;;;;39.60;23.58;;;;;;;-140.66;100.00;55571.53;4942361;29;20085;-73
2021/10/30 09:26:08;;;;;;;45.78;26.38;;;;;;;-140.66;100.00;55571.53;4941759;29;20034;-73
2021/10/30 09:29:02;;;;;;;36.65;22.92;;;;;;;-140.66;100.00;55571.53;4959291;29;20059;-74
2021/10/30 09:31:48;;;;;;;31.52;20.63;;;;;;;-140.66;100.00;55571.53;4960677;28;20469;-72
2021/10/30 09:34:34;;;;;;;36.80;22.40;;;;;;;-140.66;100.00;55571.53;4945933;29;20039;-74
2021/10/30 09:37:21;;;;;;;37.50;22.95;;;;;;;-140.66;100.00;55571.53;4960799;28;20027;-73
2021/10/30 09:40:21;;;;;;;45.88;25.92;;;;;;;-140.66;100.00;55571.53;4958858;29;20039;-73
2021/10/30 09:43:13;;;;;;;42.00;24.98;;;;;;;-140.66;100.00;55571.53;4958863;29;20031;-73
2021/10/30 09:46:10;;;;;;;45.22;24.77;;;;;;;-140.66;100.00;55571.53;4959158;29;20042;-74
2021/10/30 09:48:58;;;;;;;45.45;27.67;;;;;;;-140.66;100.00;55571.53;4961339;29;20482;-75
2021/10/30 09:51:45;;;;;;;43.72;27.20;;;;;;;-140.66;100.00;55571.53;4945708;29;20373;-75
2021/10/30 09:54:38;;;;;;;38.60;24.45;;;;;;;-140.66;100.00;55571.53;4960657;28;20121;-74
2021/10/30 09:57:31;;;;;;;37.33;23.88;;;;;;;-140.66;100.00;55571.53;4944993;29;20027;-74
2021/10/30 10:00:17;;;;;;;43.03;24.92;;;;;;;-140.66;100.00;55571.53;4960770;28;20027;-74
2021/10/30 10:03:02;;;;;;;49.30;29.27;;;;;;;-140.66;100.00;55571.53;4944660;29;20031;-74
2021/10/30 10:05:48;;;;;;;46.20;27.67;;;;;;;-140.66;100.00;55571.53;4958979;29;20027;-74
2021/10/30 10:08:38;;;;;;;41.17;25.40;;;;;;;-140.66;100.00;55571.53;4960057;28;20112;-74
2021/10/30 10:11:25;;;;;;;46.30;27.80;;;;;;;-140.66;100.00;55571.53;4960147;28;20041;-73
2021/10/30 10:14:13;;;;;;;44.55;26.38;;;;;;;-140.66;100.00;55571.53;4959269;28;20035;-74
2021/10/30 10:16:58;;;;;;;43.13;26.48;;;;;;;-140.66;100.00;55571.53;4957982;29;20046;-74
2021/10/30 10:19:45;;;;;;;41.40;26.30;;;;;;;-140.66;100.00;55571.53;4944345;29;20465;-73
2021/10/30 10:22:31;;;;;;;48.38;27.20;;;;;;;-140.66;100.00;55571.53;4958896;28;20118;-73
2021/10/30 10:25:30;;;;;;;42.08;25.85;;;;;;;-140.66;100.00;55571.53;4959333;28;20039;-74
2021/10/30 10:28:22;;;;;;;47.83;28.08;;;;;;;-140.66;100.00;55571.53;4957840;29;20031;-73
2021/10/30 10:31:26;;;;;;;44.75;27.63;;;;;;;-140.66;100.00;55571.53;4944690;29;20098;-73
2021/10/30 10:34:19;;;;;;;45.03;27.77;;;;;;;-140.66;100.00;55571.53;4957924;29;20027;-73
2021/10/30 10:37:25;;;;;;;49.83;29.77;;;;;;;-140.66;100.00;55571.53;4959415;28;20381;-74
2021/10/30 10:40:32;;;;;;;44.85;27.33;;;;;;;-140.66;100.00;55571.53;4944450;29;20035;-73
2021/10/30 10:43:43;;;;;;;51.83;29.95;;;;;;;-140.66;100.00;55571.53;4959623;28;20063;-75
2021/10/30 10:46:29;;;;;;;47.10;27.88;;;;;;;-140.66;100.00;55571.53;4944224;29;20027;-74
2021/10/30 10:49:15;;;;;;;47.92;27.88;;;;;;;-140.66;100.00;55571.53;4959486;28;20443;-74
2021/10/30 10:52:14;;;;;;;45.28;27.23;;;;;;;-140.66;100.00;55571.53;4959420;28;20042;-73
2021/10/30 10:55:07;;;;;;;45.00;27.00;;;;;;;-140.66;100.00;55571.53;4959465;28;20110;-73
2021/10/30 10:57:59;;;;;;;46.85;28.60;;;;;;;-140.66;100.00;55571.53;4957472;29;20027;-73
2021/10/30 11:01:04;;;;;;;47.50;29.00;;;;;;;-140.66;100.00;55571.53;4959046;28;20063;-73
2021/10/30 11:03:50;;;;;;;45.47;28.13;;;;;;;-140.66;100.00;55571.53;4959582;28;20027;-73
2021/10/30 11:06:42;;;;;;;46.30;28.08;;;;;;;-140.66;100.00;55571.53;4958888;28;20468;-73
2021/10/30 11:09:28;;;;;;;42.22;27.50;;;;;;;-140.66;100.00;55571.53;4958313;28;20023;-73
2021/10/30 11:12:25;;;;;;;46.42;26.58;;;;;;;-140.66;100.00;55571.53;4959083;28;20077;-73
2021/10/30 11:15:14;;;;;;;44.35;27.23;;;;;;;-140.66;100.00;55571.53;4958980;28;20485;-74
2021/10/30 11:21:05;;;;;;;46.35;27.83;;;;;;;-140.66;100.00;55571.53;4959060;28;20027;-74
2021/10/30 11:23:53;;;;;;;53.15;29.70;;;;;;;-140.66;100.00;55571.53;4957787;29;20038;-73
2021/10/30 11:26:39;;;;;;;45.72;27.50;;;;;;;-140.66;100.00;55571.53;4958695;28;20035;-74
2021/10/30 11:29:26;;;;;;;45.65;27.67;;;;;;;-140.66;100.00;55571.53;4958800;28;20023;-73
2021/10/30 11:32:12;;;;;;;52.17;30.17;;;;;;;-140.66;100.00;55571.53;4957733;29;20031;-74
2021/10/30 11:34:59;;;;;;;43.72;28.70;;;;;;;-140.66;100.00;55571.53;4943330;29;20343;-73
2021/10/30 11:37:45;;;;;;;54.00;30.90;;;;;;;-140.66;100.00;55571.53;4957317;29;20098;-74
2021/10/30 11:40:52;;;;;;;49.90;30.33;;;;;;;-140.66;100.00;55571.53;4958758;28;20445;-74
2021/10/30 11:43:37;;;;;;;52.15;30.55;;;;;;;-140.66;100.00;55571.53;4958484;28;20372;-73
2021/10/30 11:46:23;;;;;;;53.13;30.77;;;;;;;-140.66;100.00;55571.53;4958376;28;20026;-73
2021/10/30 11:49:14;;;;;;;54.17;30.85;;;;;;;-140.66;100.00;55571.53;4958136;28;20015;-73
2021/10/30 11:52:09;;;;;;;51.13;29.88;;;;;;;-140.66;100.00;55571.53;4943926;29;20035;-73
2021/10/30 11:54:57;;;;;;;52.42;31.95;;;;;;;-140.66;100.00;55571.53;4958335;28;20055;-73
2021/10/30 11:57:45;;;;;;;52.95;31.35;;;;;;;-140.66;100.00;55571.53;4956562;29;20027;-73
2021/10/30 12:00:31;;;;;;;48.45;28.50;;;;;;;-140.66;100.00;55571.53;4957955;28;20076;-73
2021/10/30 12:03:17;;;;;;;50.50;29.50;;;;;;;-140.66;100.00;55571.53;4957990;28;20357;-74
2021/10/30 12:06:03;;;;;;;54.55;31.60;;;;;;;-140.66;100.00;55571.53;4957717;28;20057;-73
2021/10/30 12:08:49;;;;;;;51.60;31.17;;;;;;;-140.66;100.00;55571.53;4957771;28;20081;-73
2021/10/30 12:11:39;;;;;;;50.67;30.20;;;;;;;-140.66;100.00;55571.53;4958238;28;20102;-73
2021/10/30 12:14:28;;;;;;;58.40;32.97;;;;;;;-140.66;100.00;55571.53;4957655;28;20062;-73
2021/10/30 12:17:29;;;;;;;43.83;27.42;;;;;;;-140.66;100.00;55571.53;4956631;29;20031;-73
2021/10/30 12:20:17;;;;;;;46.00;27.85;;;;;;;-140.66;100.00;55571.53;4957722;28;20062;-73
2021/10/30 12:23:07;;;;;;;45.40;27.58;;;;;;;-140.66;100.00;55571.53;4942392;29;20031;-74
2021/10/30 12:26:04;;;;;;;50.67;28.83;;;;;;;-140.66;100.00;55571.53;4942436;29;20031;-73
2021/10/30 12:28:50;;;;;;;53.35;31.55;;;;;;;-140.66;100.00;55571.53;4957625;28;20446;-73